ENKB/KSU METAR and TAF weather

Enter ICAO airport designator
Station Type Date Time Source
ENKB METAR 2020/10/29 17:20 UTC NOAA

ENKB 291720Z VRB02KT 9999 SCT027 07/04 Q1004 RMK WIND 745FT 20004KT


Station Type Date Time Source
ENKB Decoded METAR 2020/10/29 17:20 UTC NOAA

Kristiansund / Kvernberget, Norway (ENKB) 63-07N 007-50E 62M
Oct 29, 2020 - 01:20 PM EDT / 2020.10.29 1720 UTC
Wind: Variable at 2 MPH (2 KT):0
Visibility: greater than 7 mile(s):0
Sky conditions: partly cloudy
Temperature: 44 F (7 C)
Dew Point: 39 F (4 C)
Relative Humidity: 81%
Pressure (altimeter): 29.65 in. Hg (1004 hPa)
ob: ENKB 291720Z VRB02KT 9999 SCT027 07/04 Q1004 RMK WIND 745FT 20004KT
cycle: 17

Station Type Date Time Source
ENKB TAF 2010/02/05 07:50 UTC NOAA

METAR ENKB 050750Z 15011KT 110V200 9999 SCT055 BKN070 03/M05 Q1007

Example: see airport list